createdAt,value
2019-05-12T00:04:48.982Z,31.2
2019-05-12T00:14:48.546Z,31.2
2019-05-12T00:24:47.947Z,31.3
2019-05-12T00:34:48.021Z,31.3
2019-05-12T00:44:47.845Z,31.3
2019-05-12T00:54:45.308Z,31.4
2019-05-12T01:04:44.523Z,31.4
2019-05-12T01:14:43.733Z,31.4
2019-05-12T01:24:42.953Z,31.5
2019-05-12T01:27:43.077Z,31.5
2019-05-12T01:37:42.292Z,31.5
2019-05-12T01:47:41.496Z,31.6
2019-05-12T01:57:40.720Z,31.6
2019-05-12T02:07:39.925Z,31.6
2019-05-12T02:17:39.347Z,31.6
2019-05-12T02:27:38.534Z,31.7
2019-05-12T02:37:37.645Z,31.7
2019-05-12T02:47:38.651Z,31.7
2019-05-12T02:50:24.736Z,31.8
2019-05-12T03:00:23.847Z,31.8
2019-05-12T03:10:20.640Z,31.8
2019-05-12T03:20:19.863Z,31.8
2019-05-12T03:30:19.902Z,31.8
2019-05-12T03:40:18.280Z,31.8
2019-05-12T03:50:17.486Z,31.8
2019-05-12T04:00:16.838Z,31.8
2019-05-12T04:10:16.102Z,31.8
2019-05-12T04:20:15.545Z,31.8
2019-05-12T04:30:14.864Z,31.9
2019-05-12T04:40:15.045Z,31.9
2019-05-12T04:50:15.526Z,31.9
2019-05-12T05:00:15.269Z,31.9
2019-05-12T05:10:14.169Z,31.9
2019-05-12T05:20:10.842Z,31.9
2019-05-12T05:30:10.060Z,27
2019-05-12T05:40:09.270Z,26.8
2019-05-12T05:50:08.538Z,26.8
2019-05-12T06:00:17.113Z,27.1
2019-05-12T06:10:06.915Z,27.7
2019-05-12T06:20:06.118Z,28.3
2019-05-12T06:30:06.228Z,29
2019-05-12T06:40:04.542Z,29.8
2019-05-12T06:50:04.091Z,30.2
2019-05-12T07:01:19.271Z,30.9
2019-05-12T07:11:17.345Z,31.6
2019-05-12T07:21:19.792Z,32.2
2019-05-12T07:31:15.821Z,32.9
2019-05-12T07:41:14.991Z,33.6
2019-05-12T07:51:14.195Z,34.3
2019-05-12T08:03:06.014Z,35.2
2019-05-12T08:13:01.192Z,35.7
2019-05-12T08:24:23.620Z,36.1
2019-05-12T08:34:21.182Z,36.4
2019-05-12T08:44:24.380Z,36.5
2019-05-12T08:54:19.617Z,36.8
2019-05-12T09:04:18.877Z,37.1
2019-05-12T09:14:18.038Z,37.6
2019-05-12T09:24:21.589Z,37.9
2019-05-12T09:34:16.691Z,38.1
2019-05-12T09:44:20.218Z,38
2019-05-12T09:54:15.131Z,38.1
2019-05-12T10:04:16.036Z,37.9
2019-05-12T10:14:14.026Z,37.9
2019-05-12T10:17:07.443Z,37.9
2019-05-12T10:27:06.649Z,38.1
2019-05-12T10:37:05.861Z,37.9
2019-05-12T10:47:05.081Z,37.4
2019-05-12T10:51:34.333Z,37.1
2019-05-12T11:01:31.890Z,37.3
2019-05-12T11:11:32.732Z,37.3
2019-05-12T11:21:13.745Z,37.4
2019-05-12T11:31:13.597Z,37.6
2019-05-12T11:41:15.953Z,38
2019-05-12T11:51:11.386Z,38.4
2019-05-12T11:56:13.726Z,38.6
2019-05-12T12:06:10.665Z,38.8
2019-05-12T12:16:11.399Z,39.1
2019-05-12T12:26:09.091Z,39.4
2019-05-12T12:36:08.302Z,39.6
2019-05-12T12:46:10.457Z,40
2019-05-12T12:56:06.728Z,40.1
2019-05-12T13:06:06.039Z,40.3
2019-05-12T13:16:05.325Z,40.4
2019-05-12T13:26:04.611Z,40.6
2019-05-12T13:36:04.411Z,40.7
2019-05-12T13:46:03.251Z,40.5
2019-05-12T13:56:04.657Z,40.3
2019-05-12T14:06:03.505Z,40.6
2019-05-12T14:16:02.824Z,40.8
2019-05-12T14:26:02.094Z,41
2019-05-12T14:30:24.521Z,40.9
2019-05-12T14:40:29.839Z,40.9
2019-05-12T14:50:21.638Z,40.8
2019-05-12T15:00:21.817Z,38.4
2019-05-12T15:10:20.091Z,37.1
2019-05-12T15:20:19.299Z,37
2019-05-12T15:30:23.083Z,37.1
2019-05-12T15:39:06.864Z,37.2
2019-05-12T15:49:04.898Z,32.4
2019-05-12T15:53:39.570Z,27.5
2019-05-12T16:03:38.773Z,25.3
2019-05-12T16:13:37.983Z,25.4
2019-05-12T16:23:37.215Z,25.2
2019-05-12T16:33:36.424Z,24.9
2019-05-12T16:43:36.720Z,24.9
2019-05-12T16:49:15.494Z,25.1
2019-05-12T16:59:21.656Z,25.1
2019-05-12T17:09:13.870Z,25.2
2019-05-12T17:19:15.253Z,25.2
2019-05-12T17:29:13.637Z,25.2
2019-05-12T17:39:13.634Z,25.3
2019-05-12T17:49:15.579Z,25.3
2019-05-12T17:59:14.709Z,25.1
2019-05-12T18:09:14.573Z,24.5
2019-05-12T18:19:14.045Z,24.4
2019-05-12T18:29:07.957Z,24.5
2019-05-12T18:33:48.669Z,24.5
2019-05-12T18:43:38.858Z,24.1
2019-05-12T18:53:38.045Z,23.9
2019-05-12T19:03:46.636Z,23.3
2019-05-12T19:13:36.488Z,23.1
2019-05-12T19:23:37.667Z,20.9
2019-05-12T19:33:34.929Z,21.2
2019-05-12T19:43:39.163Z,21.2
2019-05-12T19:53:33.584Z,20.3
2019-05-12T20:03:33.461Z,17.9
2019-05-12T20:13:35.758Z,16.9
2019-05-12T20:23:33.340Z,17.1
2019-05-12T20:33:30.693Z,16.9
2019-05-12T20:43:36.551Z,17.1
2019-05-12T20:53:31.717Z,17.1
2019-05-12T21:03:28.334Z,17.1
2019-05-12T21:06:59.762Z,17.2
2019-05-12T21:17:02.951Z,17.2
2019-05-12T21:26:58.189Z,17.2
2019-05-12T21:36:58.787Z,17.3
2019-05-12T21:47:02.281Z,17.3
2019-05-12T21:56:55.842Z,17.3
2019-05-12T22:06:56.763Z,17.4
2019-05-12T22:16:54.389Z,17.4
2019-05-12T22:26:54.306Z,17.4
2019-05-12T22:36:57.202Z,17.4
2019-05-12T22:46:54.034Z,17.5
2019-05-12T22:56:55.108Z,17.6
2019-05-12T23:06:50.837Z,17.6
2019-05-12T23:16:50.048Z,17.6
2019-05-12T23:26:49.260Z,17.6
2019-05-12T23:36:50.317Z,17.7
2019-05-12T23:46:47.698Z,17.7
2019-05-12T23:56:46.914Z,17.8
